MUCL

Vilo Acuña International Airport

Cayo Largo del Sur, Cuba
MUCL 211700Z 2118/2206 15007KT 9000 SCT020 BECMG 2201/2203 VRB03KT FEW020
Issued Valid From Valid To
Jun-21 @ 17:00 UTC
(an hour ago)
Jun-21 @ 18:00 UTC
(14 minutes ago)
Jun-22 @ 06:00 UTC
(in 12 hours)
Jun-21 @ 18:00 to Jun-22 @ 01:00
MUCL 211700Z 2118/2206 15007KT 9000 SCT020
Wind Visibility Clouds
150° at 7 knots 8,996 meters
  • Scattered at 2,000' AGL
Becoming Jun-22 @ 01:00 to Jun-22 @ 06:00
BECMG 2201/2203 VRB03KT FEW020
Wind Visibility Clouds
Variable at 3 knots 8,996 meters
  • Few at 2,000' AGL
MUCL 211700Z 2118/2206 15007KT 9000 SCT020 BECMG 2201/2203 VRB03KT FEW020
Issued Jun-21 @ 17:00 UTC
(an hour ago)
Valid From Jun-21 @ 18:00 UTC
(14 minutes ago)
Valid To Jun-22 @ 06:00 UTC
(in 12 hours)
Jun-21 @ 18:00 - Jun-22 @ 01:00
Wind Visibility
150° at 7 knots 8,996 meters
Clouds
  • Scattered at 2,000' AGL
Becoming Jun-22 @ 01:00 - Jun-22 @ 06:00
Wind Visibility
Variable at 3 knots 8,996 meters
Clouds
  • Few at 2,000' AGL